createdAt,value
2023-02-13T00:01:39.391Z,1.48
2023-02-13T00:04:20.525Z,1.75
2023-02-13T00:07:00.354Z,1.80
2023-02-13T00:09:41.488Z,3.00
2023-02-13T00:12:21.353Z,1.02
2023-02-13T00:15:02.654Z,2.03
2023-02-13T00:17:44.369Z,1.52
2023-02-13T00:20:25.475Z,1.60
2023-02-13T00:23:06.371Z,1.45
2023-02-13T00:25:47.451Z,0.73
2023-02-13T00:28:28.428Z,1.70
2023-02-13T00:31:23.413Z,1.92
2023-02-13T00:33:57.296Z,1.83
2023-02-13T00:36:45.368Z,1.45
2023-02-13T00:39:26.352Z,1.42
2023-02-13T00:42:14.391Z,1.42
2023-02-13T00:44:48.296Z,1.52
2023-02-13T00:47:36.356Z,1.55
2023-02-13T00:50:10.765Z,1.45
2023-02-13T00:52:58.348Z,2.25
2023-02-13T00:55:32.378Z,2.47
2023-02-13T00:58:20.411Z,1.48
2023-02-13T01:01:01.370Z,4.18
2023-02-13T01:03:42.556Z,2.03
2023-02-13T01:06:23.395Z,1.65
2023-02-13T01:09:11.394Z,2.50
2023-02-13T01:11:51.372Z,2.40
2023-02-13T01:14:32.453Z,2.88
2023-02-13T01:17:12.414Z,2.83
2023-02-13T01:19:53.495Z,2.30
2023-02-13T01:22:33.368Z,2.53
2023-02-13T01:25:21.386Z,2.08
2023-02-13T01:28:01.438Z,2.05
2023-02-13T01:30:42.473Z,2.08
2023-02-13T01:33:22.354Z,1.85
2023-02-13T01:36:03.473Z,4.07
2023-02-13T01:38:51.384Z,4.38
2023-02-13T01:41:32.362Z,4.00
2023-02-13T01:44:45.393Z,3.40
2023-02-13T01:47:38.397Z,1.58
2023-02-13T01:50:39.358Z,4.03
2023-02-13T01:53:46.368Z,1.17
2023-02-13T01:56:41.395Z,1.83
2023-02-13T01:59:24.411Z,1.58
2023-02-13T02:02:11.451Z,2.08
2023-02-13T02:04:53.429Z,2.13
2023-02-13T02:07:36.383Z,2.33
2023-02-13T02:10:21.435Z,2.85
2023-02-13T02:13:01.413Z,2.10
2023-02-13T02:15:49.424Z,1.52
2023-02-13T02:18:24.151Z,0.95
2023-02-13T02:21:23.410Z,1.27
2023-02-13T02:24:15.900Z,1.50
2023-02-13T02:27:17.380Z,2.05
2023-02-13T02:30:09.609Z,2.30
2023-02-13T02:33:15.409Z,2.17
2023-02-13T02:36:12.393Z,1.13
2023-02-13T02:38:59.405Z,2.72
2023-02-13T02:41:49.392Z,1.30
2023-02-13T02:44:43.352Z,1.90
2023-02-13T02:47:54.363Z,2.00
2023-02-13T02:50:38.402Z,2.50
2023-02-13T02:53:32.404Z,2.13
2023-02-13T02:56:27.852Z,1.65
2023-02-13T02:59:36.456Z,2.58
2023-02-13T03:02:37.357Z,2.15
2023-02-13T03:05:47.371Z,2.47
2023-02-13T03:08:41.522Z,1.80
2023-02-13T03:11:48.424Z,1.85
2023-02-13T03:14:26.477Z,2.10
2023-02-13T03:17:38.388Z,2.10
2023-02-13T03:20:58.773Z,2.50
2023-02-13T03:23:39.356Z,0.65
2023-02-13T03:26:32.969Z,2.60
2023-02-13T03:30:17.356Z,1.83
2023-02-13T03:33:13.493Z,2.17
2023-02-13T03:36:15.360Z,1.85
2023-02-13T03:38:59.489Z,1.20
2023-02-13T03:41:40.375Z,1.73
2023-02-13T03:45:15.421Z,2.25
2023-02-13T03:47:58.434Z,3.25
2023-02-13T03:50:46.401Z,3.67
2023-02-13T03:53:27.450Z,2.20
2023-02-13T03:56:34.385Z,1.67
2023-02-13T03:59:24.408Z,1.98
2023-02-13T04:02:41.382Z,1.98
2023-02-13T04:05:21.625Z,2.08
2023-02-13T04:08:09.400Z,1.20
2023-02-13T04:10:49.834Z,2.05
2023-02-13T04:13:40.458Z,1.55
2023-02-13T04:16:53.453Z,1.90
2023-02-13T04:19:41.415Z,3.95
2023-02-13T04:22:15.509Z,2.45
2023-02-13T04:25:02.425Z,2.13
2023-02-13T04:27:43.364Z,2.08
2023-02-13T04:30:37.596Z,2.97
2023-02-13T04:33:24.372Z,2.95
2023-02-13T04:36:05.502Z,2.75
2023-02-13T04:38:53.388Z,3.50
2023-02-13T04:41:27.460Z,3.42
2023-02-13T04:44:15.410Z,3.00
2023-02-13T04:46:56.409Z,2.88
2023-02-13T04:49:50.385Z,2.88
2023-02-13T04:52:37.426Z,2.13
2023-02-13T04:55:11.477Z,3.53
2023-02-13T04:58:00.415Z,2.03
2023-02-13T05:00:35.470Z,2.90
2023-02-13T05:03:22.418Z,2.67
2023-02-13T05:06:03.410Z,2.47
2023-02-13T05:08:44.437Z,4.20
2023-02-13T05:11:32.405Z,3.22
2023-02-13T05:14:06.314Z,2.63
2023-02-13T05:16:54.383Z,3.55
2023-02-13T05:19:34.382Z,8.88
2023-02-13T05:22:36.401Z,3.90
2023-02-13T05:25:16.418Z,3.13
2023-02-13T05:27:57.500Z,3.60
2023-02-13T05:30:38.458Z,2.83
2023-02-13T05:33:26.375Z,2.63
2023-02-13T05:36:00.382Z,2.70
2023-02-13T05:38:48.410Z,2.83
2023-02-13T05:41:22.340Z,2.70
2023-02-13T05:44:10.385Z,2.28
2023-02-13T05:46:44.947Z,1.38
2023-02-13T05:49:32.390Z,2.85
2023-02-13T05:52:06.371Z,1.45
2023-02-13T05:54:54.401Z,2.53
2023-02-13T05:57:28.367Z,4.13
2023-02-13T06:00:16.409Z,7.60
2023-02-13T06:02:50.498Z,4.65
2023-02-13T06:05:38.403Z,5.88
2023-02-13T06:08:12.351Z,1.48
2023-02-13T06:11:04.399Z,1.77
2023-02-13T06:13:40.729Z,1.77
2023-02-13T06:16:29.397Z,1.77
2023-02-13T06:19:03.341Z,1.40
2023-02-13T06:21:51.414Z,0.70
2023-02-13T06:24:25.432Z,1.85
2023-02-13T06:27:13.417Z,1.60
2023-02-13T06:29:54.425Z,2.20
2023-02-13T06:32:35.481Z,1.83
2023-02-13T06:35:16.428Z,1.90
2023-02-13T06:37:57.484Z,1.98
2023-02-13T06:40:37.457Z,1.77
2023-02-13T06:43:18.452Z,1.98
2023-02-13T06:46:06.439Z,2.13
2023-02-13T06:48:47.454Z,2.30
2023-02-13T06:51:41.371Z,2.05
2023-02-13T06:54:44.803Z,2.95
2023-02-13T06:57:20.464Z,1.63
2023-02-13T07:00:12.400Z,4.15
2023-02-13T07:02:49.544Z,2.20
2023-02-13T07:05:37.485Z,1.60
2023-02-13T07:08:18.389Z,1.90
2023-02-13T07:11:05.424Z,1.42
2023-02-13T07:13:39.484Z,0.90
2023-02-13T07:16:27.409Z,1.25
2023-02-13T07:19:01.505Z,1.42
2023-02-13T07:21:48.409Z,1.80
2023-02-13T07:24:22.482Z,1.73
2023-02-13T07:27:09.415Z,1.00
2023-02-13T07:29:50.510Z,1.00
2023-02-13T07:32:31.410Z,2.03
2023-02-13T07:35:12.477Z,2.90
2023-02-13T07:37:52.412Z,4.28
2023-02-13T07:40:33.791Z,2.50
2023-02-13T07:43:14.393Z,1.98
2023-02-13T07:45:55.904Z,1.52
2023-02-13T07:48:38.403Z,2.55
2023-02-13T07:51:19.593Z,3.03
2023-02-13T07:54:00.434Z,2.10
2023-02-13T07:56:41.468Z,2.45
2023-02-13T07:59:21.435Z,6.72
2023-02-13T08:02:09.497Z,4.40
2023-02-13T08:04:53.416Z,4.55
2023-02-13T08:07:41.494Z,1.67
2023-02-13T08:10:54.444Z,4.25
2023-02-13T08:13:43.444Z,2.50
2023-02-13T08:16:24.436Z,2.60
2023-02-13T08:19:18.409Z,2.63
2023-02-13T08:22:06.418Z,2.05
2023-02-13T08:24:40.605Z,2.30
2023-02-13T08:27:29.408Z,1.95
2023-02-13T08:30:18.414Z,2.00
2023-02-13T08:33:06.404Z,3.42
2023-02-13T08:35:47.422Z,1.25
2023-02-13T08:38:41.508Z,1.70
2023-02-13T08:41:29.443Z,3.20
2023-02-13T08:44:10.466Z,2.17
2023-02-13T08:46:57.408Z,2.75
2023-02-13T08:49:31.464Z,1.55
2023-02-13T08:52:18.422Z,1.38
2023-02-13T08:54:52.605Z,1.08
2023-02-13T08:57:40.437Z,1.33
2023-02-13T09:00:14.697Z,1.35
2023-02-13T09:03:02.500Z,1.15
2023-02-13T09:05:37.507Z,1.52
2023-02-13T09:08:24.395Z,1.30
2023-02-13T09:11:02.557Z,2.75
2023-02-13T09:13:49.406Z,1.10
2023-02-13T09:16:23.504Z,1.83
2023-02-13T09:19:11.403Z,1.73
2023-02-13T09:21:45.493Z,0.40
2023-02-13T09:24:32.436Z,1.75
2023-02-13T09:27:07.994Z,2.08
2023-02-13T09:29:55.455Z,1.67
2023-02-13T09:32:37.582Z,1.02
2023-02-13T09:35:17.401Z,3.08
2023-02-13T09:37:58.489Z,2.30
2023-02-13T09:40:51.442Z,2.03
2023-02-13T09:43:45.447Z,3.50
2023-02-13T09:46:50.531Z,3.47
2023-02-13T09:49:27.489Z,5.03
2023-02-13T09:52:16.416Z,1.15
2023-02-13T09:54:50.544Z,2.37
2023-02-13T09:57:43.421Z,2.50
2023-02-13T10:00:34.420Z,2.15
2023-02-13T10:03:34.443Z,1.83
2023-02-13T10:06:28.445Z,3.80
2023-02-13T10:09:05.573Z,1.20
2023-02-13T10:12:12.415Z,1.05
2023-02-13T10:15:17.457Z,1.70
2023-02-13T10:18:13.551Z,1.38
2023-02-13T10:21:08.476Z,1.08
2023-02-13T10:24:05.409Z,2.00
2023-02-13T10:26:54.409Z,2.00
2023-02-13T10:29:49.333Z,1.90
2023-02-13T10:32:38.452Z,1.52
2023-02-13T10:35:23.354Z,1.80
2023-02-13T10:38:18.427Z,2.22
2023-02-13T10:41:00.555Z,1.13
2023-02-13T10:44:00.455Z,2.17
2023-02-13T10:46:54.496Z,1.83
2023-02-13T10:49:48.453Z,2.30
2023-02-13T10:52:55.398Z,1.77
2023-02-13T10:56:04.447Z,1.95
2023-02-13T10:58:41.488Z,1.25
2023-02-13T11:01:40.472Z,1.20
2023-02-13T11:04:31.436Z,1.92
2023-02-13T11:07:10.693Z,2.22
2023-02-13T11:10:00.470Z,2.75
2023-02-13T11:12:34.706Z,3.25
2023-02-13T11:15:34.439Z,4.28
2023-02-13T11:18:19.405Z,4.03
2023-02-13T11:21:15.422Z,3.80
2023-02-13T11:23:59.017Z,3.65
2023-02-13T11:26:46.426Z,1.70
2023-02-13T11:29:26.066Z,3.95
2023-02-13T11:32:19.553Z,2.85
2023-02-13T11:34:54.767Z,3.25
2023-02-13T11:37:43.443Z,1.38
2023-02-13T11:40:31.581Z,7.70
2023-02-13T11:43:20.458Z,5.55
2023-02-13T11:46:11.143Z,4.07
2023-02-13T11:49:09.443Z,8.57
2023-02-13T11:51:44.962Z,2.17
2023-02-13T11:54:52.661Z,3.60
2023-02-13T11:57:31.156Z,4.35
2023-02-13T12:00:37.519Z,3.10
2023-02-13T12:03:37.555Z,1.30
2023-02-13T12:06:18.542Z,1.17
2023-02-13T12:08:59.469Z,2.20
2023-02-13T12:11:52.550Z,1.52
2023-02-13T12:14:35.462Z,1.40
2023-02-13T12:17:35.519Z,1.25
2023-02-13T12:20:19.497Z,2.03
2023-02-13T12:23:16.424Z,1.27
2023-02-13T12:25:56.829Z,2.08
2023-02-13T12:29:00.870Z,1.25
2023-02-13T12:31:48.539Z,1.35
2023-02-13T12:34:39.459Z,1.15
2023-02-13T12:37:23.455Z,1.58
2023-02-13T12:40:15.689Z,2.17
2023-02-13T12:43:12.462Z,1.60
2023-02-13T12:45:53.290Z,1.40
2023-02-13T12:48:53.420Z,1.08
2023-02-13T12:51:52.442Z,2.05
2023-02-13T12:55:02.451Z,1.30
2023-02-13T12:57:56.448Z,2.53
2023-02-13T13:01:09.436Z,1.13
2023-02-13T13:04:18.138Z,2.33
2023-02-13T13:07:08.435Z,2.13
2023-02-13T13:10:02.554Z,2.08
2023-02-13T13:12:52.723Z,0.75
2023-02-13T13:15:42.493Z,1.23
2023-02-13T13:18:29.445Z,1.80
2023-02-13T13:21:12.566Z,1.70
2023-02-13T13:24:06.470Z,2.05
2023-02-13T13:26:57.488Z,1.10
2023-02-13T13:29:38.368Z,2.40
2023-02-13T13:32:30.487Z,1.85
2023-02-13T13:35:05.320Z,0.65
2023-02-13T13:38:08.491Z,1.70
2023-02-13T13:40:45.541Z,1.40
2023-02-13T13:43:36.452Z,1.13
2023-02-13T13:46:13.076Z,0.70
2023-02-13T13:49:12.444Z,1.92
2023-02-13T13:51:46.651Z,2.22
2023-02-13T13:54:36.432Z,1.27
2023-02-13T13:57:17.466Z,1.80
2023-02-13T14:00:02.531Z,2.15
2023-02-13T14:03:13.486Z,1.55
2023-02-13T14:06:07.571Z,2.35
2023-02-13T14:08:47.515Z,3.55
2023-02-13T14:11:33.627Z,1.88
2023-02-13T14:14:33.667Z,2.60
2023-02-13T14:17:20.797Z,1.92
2023-02-13T14:20:01.460Z,3.35
2023-02-13T14:22:43.542Z,2.58
2023-02-13T14:25:34.436Z,1.70
2023-02-13T14:28:18.479Z,2.30
2023-02-13T14:31:23.540Z,3.28
2023-02-13T14:34:13.420Z,2.17
2023-02-13T14:36:52.517Z,7.05
2023-02-13T14:39:48.464Z,2.33
2023-02-13T14:42:30.503Z,1.40
2023-02-13T14:45:12.459Z,1.40
2023-02-13T14:48:04.490Z,1.38
2023-02-13T14:50:55.854Z,1.48
2023-02-13T14:53:38.569Z,1.63
2023-02-13T14:56:25.477Z,1.90
2023-02-13T14:59:26.445Z,1.48
2023-02-13T15:02:22.453Z,1.00
2023-02-13T15:05:06.601Z,2.13
2023-02-13T15:07:52.826Z,1.40
2023-02-13T15:10:56.906Z,2.08
2023-02-13T15:13:50.453Z,3.25
2023-02-13T15:16:38.477Z,2.97
2023-02-13T15:19:19.473Z,1.10
2023-02-13T15:22:14.459Z,0.93
2023-02-13T15:25:01.464Z,3.47
2023-02-13T15:27:46.579Z,2.45
2023-02-13T15:30:51.507Z,3.53
2023-02-13T15:33:49.458Z,1.42
2023-02-13T15:36:33.450Z,1.02
2023-02-13T15:39:30.428Z,2.60
2023-02-13T15:42:19.503Z,1.65
2023-02-13T15:45:09.440Z,1.88
2023-02-13T15:47:50.446Z,3.75
2023-02-13T15:50:39.549Z,1.80
2023-02-13T15:53:22.446Z,1.77
2023-02-13T15:56:05.613Z,2.30
2023-02-13T15:58:47.446Z,1.90
2023-02-13T16:01:28.606Z,1.88
2023-02-13T16:04:14.480Z,1.63
2023-02-13T16:06:57.867Z,2.47
2023-02-13T16:09:45.449Z,5.95
2023-02-13T16:12:30.526Z,1.95
2023-02-13T16:15:22.481Z,4.85
2023-02-13T16:18:03.440Z,5.18
2023-02-13T16:20:51.455Z,2.35
2023-02-13T16:23:33.469Z,2.20
2023-02-13T16:26:29.478Z,2.90
2023-02-13T16:29:19.439Z,3.15
2023-02-13T16:31:54.670Z,3.47
2023-02-13T16:34:41.487Z,3.85
2023-02-13T16:37:32.557Z,3.38
2023-02-13T16:40:35.477Z,4.90
2023-02-13T16:43:35.455Z,1.85
2023-02-13T16:46:29.445Z,3.88
2023-02-13T16:49:16.448Z,4.32
2023-02-13T16:52:04.581Z,5.20
2023-02-13T16:54:51.451Z,3.53
2023-02-13T16:57:27.648Z,1.85
2023-02-13T17:00:16.498Z,3.85
2023-02-13T17:02:57.604Z,4.03
2023-02-13T17:05:38.465Z,1.98
2023-02-13T17:08:18.520Z,1.70
2023-02-13T17:11:10.535Z,2.15
2023-02-13T17:13:50.633Z,5.88
2023-02-13T17:16:31.555Z,8.88
2023-02-13T17:19:25.446Z,4.05
2023-02-13T17:22:13.456Z,3.88
2023-02-13T17:24:47.564Z,1.80
2023-02-13T17:27:35.509Z,2.35
2023-02-13T17:30:09.628Z,3.20
2023-02-13T17:32:57.461Z,1.52
2023-02-13T17:35:38.538Z,4.43
2023-02-13T17:38:19.741Z,3.40
2023-02-13T17:41:07.496Z,2.83
2023-02-13T17:43:47.564Z,4.05
2023-02-13T17:46:35.453Z,1.85
2023-02-13T17:49:15.472Z,4.80
2023-02-13T17:51:56.613Z,2.22
2023-02-13T17:54:36.452Z,3.60
2023-02-13T17:57:17.687Z,4.22
2023-02-13T17:59:58.564Z,2.75
2023-02-13T18:02:46.486Z,3.95
2023-02-13T18:05:27.735Z,3.47
2023-02-13T18:08:08.600Z,4.68
2023-02-13T18:10:49.454Z,9.55
2023-02-13T18:13:37.448Z,25.70
2023-02-13T18:16:18.594Z,23.50
2023-02-13T18:18:59.594Z,9.48
2023-02-13T18:21:39.440Z,14.82
2023-02-13T18:24:27.465Z,5.70
2023-02-13T18:27:08.530Z,8.52
2023-02-13T18:29:56.517Z,10.38
2023-02-13T18:32:36.549Z,9.10
2023-02-13T18:35:18.843Z,7.72
2023-02-13T18:38:00.448Z,18.85
2023-02-13T18:40:41.527Z,15.15
2023-02-13T18:43:22.617Z,4.22
2023-02-13T18:46:04.808Z,6.75
2023-02-13T18:48:46.459Z,4.63
2023-02-13T18:51:27.550Z,4.45
2023-02-13T18:54:08.737Z,4.03
2023-02-13T18:56:49.548Z,6.43
2023-02-13T18:59:31.665Z,4.97
2023-02-13T19:02:19.469Z,9.88
2023-02-13T19:04:59.728Z,5.63
2023-02-13T19:07:40.564Z,4.50
2023-02-13T19:10:32.985Z,3.15
2023-02-13T19:13:20.447Z,3.80
2023-02-13T19:16:01.708Z,5.35
2023-02-13T19:18:53.460Z,3.17
2023-02-13T19:21:28.665Z,4.75
2023-02-13T19:24:18.725Z,4.03
2023-02-13T19:27:12.445Z,4.72
2023-02-13T19:29:59.738Z,4.30
2023-02-13T19:32:40.441Z,4.50
2023-02-13T19:35:34.669Z,4.53
2023-02-13T19:38:22.443Z,4.15
2023-02-13T19:40:57.075Z,3.47
2023-02-13T19:43:44.676Z,2.10
2023-02-13T19:46:18.881Z,3.58
2023-02-13T19:49:06.484Z,3.40
2023-02-13T19:51:42.418Z,2.63
2023-02-13T19:54:29.762Z,3.78
2023-02-13T19:57:13.459Z,4.20
2023-02-13T20:00:00.464Z,4.60
2023-02-13T20:02:41.791Z,3.80
2023-02-13T20:05:28.648Z,3.53
2023-02-13T20:08:09.485Z,3.70
2023-02-13T20:11:03.436Z,2.65
2023-02-13T20:13:50.465Z,4.03
2023-02-13T20:16:24.655Z,3.05
2023-02-13T20:19:15.462Z,3.60
2023-02-13T20:21:49.784Z,4.63
2023-02-13T20:24:37.663Z,4.15
2023-02-13T20:27:18.539Z,4.50
2023-02-13T20:30:06.428Z,2.78
2023-02-13T20:32:47.533Z,5.25
2023-02-13T20:35:28.688Z,3.05
2023-02-13T20:38:10.848Z,4.18
2023-02-13T20:40:50.715Z,2.72
2023-02-13T20:43:39.665Z,3.40
2023-02-13T20:46:15.999Z,3.47
2023-02-13T20:49:03.585Z,4.65
2023-02-13T20:51:43.649Z,3.30
2023-02-13T20:54:31.644Z,3.40
2023-02-13T20:57:06.563Z,2.47
2023-02-13T20:59:54.454Z,2.67
2023-02-13T21:02:28.474Z,2.35
2023-02-13T21:05:16.442Z,2.60
2023-02-13T21:07:56.465Z,5.97
2023-02-13T21:10:37.513Z,2.65
2023-02-13T21:13:18.485Z,3.30
2023-02-13T21:15:59.616Z,2.42
2023-02-13T21:18:40.513Z,2.85
2023-02-13T21:21:28.473Z,3.83
2023-02-13T21:24:08.018Z,3.63
2023-02-13T21:26:56.497Z,3.60
2023-02-13T21:29:51.513Z,3.28
2023-02-13T21:32:38.519Z,3.85
2023-02-13T21:35:26.494Z,2.58
2023-02-13T21:38:06.520Z,2.92
2023-02-13T21:40:54.484Z,3.38
2023-02-13T21:43:28.427Z,2.65
2023-02-13T21:46:20.533Z,2.42
2023-02-13T21:48:55.736Z,2.40
2023-02-13T21:51:43.485Z,2.95
2023-02-13T21:54:17.439Z,3.30
2023-02-13T21:57:05.455Z,1.65
2023-02-13T21:59:45.461Z,3.40
2023-02-13T22:02:33.561Z,3.25
2023-02-13T22:05:14.484Z,2.50
2023-02-13T22:08:17.486Z,3.55
2023-02-13T22:10:55.113Z,3.15
2023-02-13T22:13:42.505Z,10.65
2023-02-13T22:16:23.494Z,5.95
2023-02-13T22:19:04.565Z,23.77
2023-02-13T22:21:44.500Z,6.43
2023-02-13T22:24:27.629Z,2.97
2023-02-13T22:27:07.464Z,6.40
2023-02-13T22:29:48.540Z,5.90
2023-02-13T22:32:28.488Z,2.85
2023-02-13T22:35:09.669Z,3.65
2023-02-13T22:37:50.500Z,2.95
2023-02-13T22:40:38.476Z,2.63
2023-02-13T22:43:18.517Z,2.95
2023-02-13T22:46:02.156Z,4.40
2023-02-13T22:48:43.464Z,2.55
2023-02-13T22:51:32.465Z,2.92
2023-02-13T22:54:06.717Z,1.70
2023-02-13T22:56:54.535Z,3.13
2023-02-13T22:59:28.445Z,3.22
2023-02-13T23:02:22.470Z,2.42
2023-02-13T23:05:09.476Z,3.30
2023-02-13T23:07:43.575Z,3.15
2023-02-13T23:10:32.483Z,2.75
2023-02-13T23:13:06.550Z,1.90
2023-02-13T23:15:56.509Z,2.17
2023-02-13T23:18:44.479Z,2.22
2023-02-13T23:21:18.692Z,1.85
2023-02-13T23:24:06.485Z,2.67
2023-02-13T23:26:47.483Z,2.65
2023-02-13T23:29:28.572Z,1.85
2023-02-13T23:32:09.589Z,2.58
2023-02-13T23:34:50.564Z,1.38
2023-02-13T23:37:30.492Z,2.25
2023-02-13T23:40:12.540Z,2.92
2023-02-13T23:42:53.483Z,1.70
2023-02-13T23:45:34.581Z,2.80
2023-02-13T23:48:16.468Z,3.80
2023-02-13T23:51:04.505Z,2.92
2023-02-13T23:53:45.468Z,2.58
2023-02-13T23:56:33.469Z,2.65
2023-02-13T23:59:07.403Z,2.55
